createdAt,value
2018-07-21T00:02:22.038Z,8.73
2018-07-21T00:04:49.272Z,10.05
2018-07-21T00:07:16.658Z,11.10
2018-07-21T00:09:44.111Z,8.05
2018-07-21T00:12:11.435Z,11.57
2018-07-21T00:14:38.789Z,10.10
2018-07-21T00:17:06.220Z,11.33
2018-07-21T00:19:33.467Z,8.00
2018-07-21T00:22:00.746Z,8.10
2018-07-21T00:24:28.193Z,8.20
2018-07-21T00:26:55.471Z,7.50
2018-07-21T00:29:22.721Z,9.00
2018-07-21T00:31:50.313Z,7.25
2018-07-21T00:34:17.592Z,8.43
2018-07-21T00:36:44.835Z,9.40
2018-07-21T00:39:14.625Z,8.70
2018-07-21T00:41:41.934Z,9.83
2018-07-21T00:44:09.256Z,7.37
2018-07-21T00:46:36.795Z,7.58
2018-07-21T00:49:04.193Z,9.03
2018-07-21T00:51:31.503Z,7.62
2018-07-21T00:53:58.777Z,7.22
2018-07-21T00:56:26.088Z,6.97
2018-07-21T00:58:53.374Z,6.70
2018-07-21T01:01:20.647Z,9.23
2018-07-21T01:03:48.248Z,7.25
2018-07-21T01:06:15.487Z,6.85
2018-07-21T01:08:42.764Z,7.53
2018-07-21T01:11:10.103Z,9.48
2018-07-21T01:13:37.395Z,6.60
2018-07-21T01:16:04.895Z,9.53
2018-07-21T01:18:32.240Z,6.72
2018-07-21T01:20:59.583Z,7.40
2018-07-21T01:23:26.911Z,7.28
2018-07-21T01:25:54.262Z,7.80
2018-07-21T01:28:21.590Z,7.30
2018-07-21T01:30:48.880Z,8.15
2018-07-21T01:33:16.295Z,6.95
2018-07-21T01:35:43.550Z,6.75
2018-07-21T01:38:10.882Z,6.72
2018-07-21T01:40:38.214Z,7.35
2018-07-21T01:43:05.507Z,6.47
2018-07-21T01:45:32.790Z,7.03
2018-07-21T01:48:00.059Z,8.60
2018-07-21T01:50:27.337Z,7.47
2018-07-21T01:52:54.649Z,7.47
2018-07-21T01:55:21.970Z,7.80
2018-07-21T01:57:49.253Z,7.00
2018-07-21T02:00:16.566Z,7.40
2018-07-21T02:02:44.887Z,9.25
2018-07-21T02:05:12.499Z,7.25
2018-07-21T02:07:40.041Z,7.90
2018-07-21T02:10:07.302Z,7.33
2018-07-21T02:12:34.683Z,7.78
2018-07-21T02:15:01.935Z,8.63
2018-07-21T02:17:29.203Z,8.33
2018-07-21T02:19:56.527Z,8.90
2018-07-21T02:22:23.762Z,7.00
2018-07-21T02:24:51.106Z,9.08
2018-07-21T02:27:18.346Z,7.55
2018-07-21T02:29:45.562Z,7.95
2018-07-21T02:32:12.828Z,9.85
2018-07-21T02:34:40.208Z,7.80
2018-07-21T02:37:07.463Z,7.50
2018-07-21T02:39:34.747Z,8.05
2018-07-21T02:42:02.045Z,7.55
2018-07-21T02:44:29.316Z,8.38
2018-07-21T02:46:56.613Z,7.37
2018-07-21T02:49:23.990Z,9.58
2018-07-21T02:51:51.343Z,11.25
2018-07-21T02:54:18.625Z,9.70
2018-07-21T02:56:45.983Z,8.68
2018-07-21T02:59:13.290Z,7.72
2018-07-21T03:01:40.522Z,8.05
2018-07-21T03:04:07.810Z,8.05
2018-07-21T03:06:35.078Z,8.65
2018-07-21T03:09:02.577Z,7.65
2018-07-21T03:11:29.904Z,8.00
2018-07-21T03:13:57.253Z,7.75
2018-07-21T03:16:24.491Z,8.33
2018-07-21T03:18:51.799Z,8.78
2018-07-21T03:21:19.067Z,8.05
2018-07-21T03:23:46.392Z,7.92
2018-07-21T03:26:13.760Z,8.45
2018-07-21T03:28:41.019Z,8.23
2018-07-21T03:31:08.470Z,10.70
2018-07-21T03:33:35.711Z,8.20
2018-07-21T03:36:02.976Z,9.18
2018-07-21T03:38:30.272Z,8.75
2018-07-21T03:40:57.553Z,9.00
2018-07-21T03:43:25.040Z,8.78
2018-07-21T03:45:52.278Z,9.50
2018-07-21T03:48:19.576Z,9.88
2018-07-21T03:50:46.929Z,9.65
2018-07-21T03:53:14.312Z,9.15
2018-07-21T03:55:41.673Z,9.48
2018-07-21T03:58:08.930Z,9.08
2018-07-21T04:00:36.289Z,9.05
2018-07-21T04:03:03.623Z,9.03
2018-07-21T04:05:31.025Z,10.13
2018-07-21T04:07:58.347Z,9.70
2018-07-21T04:10:25.686Z,9.60
2018-07-21T04:12:52.955Z,10.82
2018-07-21T04:15:20.323Z,9.03
2018-07-21T04:17:47.656Z,9.03
2018-07-21T04:20:14.979Z,11.22
2018-07-21T04:22:42.284Z,9.20
2018-07-21T04:25:09.641Z,10.13
2018-07-21T04:27:37.013Z,11.53
2018-07-21T04:30:04.444Z,9.93
2018-07-21T04:32:31.700Z,10.25
2018-07-21T04:34:58.983Z,10.13
2018-07-21T04:37:26.327Z,9.80
2018-07-21T04:39:53.644Z,9.43
2018-07-21T04:42:20.944Z,10.08
2018-07-21T04:44:48.339Z,9.53
2018-07-21T04:47:15.590Z,10.08
2018-07-21T04:49:42.900Z,10.08
2018-07-21T04:52:10.205Z,9.70
2018-07-21T04:54:37.575Z,10.30
2018-07-21T04:57:05.007Z,11.30
2018-07-21T04:59:32.251Z,9.83
2018-07-21T05:01:59.536Z,9.45
2018-07-21T05:04:26.783Z,10.28
2018-07-21T05:06:54.079Z,11.35
2018-07-21T05:09:21.544Z,9.38
2018-07-21T05:11:48.791Z,10.20
2018-07-21T05:14:16.067Z,10.75
2018-07-21T05:16:43.374Z,9.93
2018-07-21T05:19:10.712Z,9.95
2018-07-21T05:21:38.028Z,10.38
2018-07-21T05:24:05.704Z,10.20
2018-07-21T05:26:33.366Z,10.32
2018-07-21T05:29:00.682Z,10.88
2018-07-21T05:31:27.930Z,11.10
2018-07-21T05:33:55.372Z,10.78
2018-07-21T05:36:22.687Z,10.00
2018-07-21T05:38:50.001Z,10.05
2018-07-21T05:41:17.271Z,10.70
2018-07-21T05:43:44.628Z,13.00
2018-07-21T05:46:11.926Z,10.40
2018-07-21T05:48:39.263Z,10.40
2018-07-21T05:51:06.545Z,10.18
2018-07-21T05:53:33.892Z,9.80
2018-07-21T05:56:01.507Z,9.48
2018-07-21T05:58:28.783Z,10.75
2018-07-21T06:00:56.326Z,9.40
2018-07-21T06:03:23.579Z,10.50
2018-07-21T06:05:50.844Z,10.75
2018-07-21T06:08:18.223Z,9.68
2018-07-21T06:10:45.524Z,11.65
2018-07-21T06:13:12.827Z,13.05
2018-07-21T06:15:40.092Z,15.65
2018-07-21T06:18:07.397Z,10.65
2018-07-21T06:20:34.634Z,11.22
2018-07-21T06:23:02.128Z,11.60
2018-07-21T06:25:29.387Z,11.00
2018-07-21T06:27:57.131Z,13.90
2018-07-21T06:30:24.854Z,12.45
2018-07-21T06:32:52.174Z,12.30
2018-07-21T06:35:19.467Z,11.30
2018-07-21T06:37:46.964Z,12.00
2018-07-21T06:40:14.264Z,11.40
2018-07-21T06:42:41.554Z,11.85
2018-07-21T06:45:08.959Z,11.93
2018-07-21T06:47:36.270Z,11.93
2018-07-21T06:50:04.039Z,13.00
2018-07-21T06:52:32.494Z,11.90
2018-07-21T06:54:59.938Z,11.97
2018-07-21T06:57:27.235Z,11.73
2018-07-21T06:59:54.548Z,12.65
2018-07-21T07:02:21.806Z,12.73
2018-07-21T07:04:49.356Z,12.60
2018-07-21T07:07:16.694Z,13.55
2018-07-21T07:09:43.974Z,13.43
2018-07-21T07:12:11.259Z,13.90
2018-07-21T07:14:38.519Z,14.18
2018-07-21T07:17:05.856Z,14.98
2018-07-21T07:19:33.240Z,15.45
2018-07-21T07:22:00.814Z,14.55
2018-07-21T07:24:28.152Z,15.50
2018-07-21T07:26:55.544Z,16.17
2018-07-21T07:29:22.876Z,15.85
2018-07-21T07:31:50.210Z,15.00
2018-07-21T07:34:17.566Z,15.35
2018-07-21T07:36:44.954Z,16.70
2018-07-21T07:39:12.355Z,16.42
2018-07-21T07:41:39.766Z,16.00
2018-07-21T07:44:07.335Z,14.15
2018-07-21T07:46:35.028Z,14.70
2018-07-21T07:49:02.310Z,18.40
2018-07-21T07:51:29.574Z,15.38
2018-07-21T07:53:56.923Z,17.82
2018-07-21T07:56:24.562Z,16.42
2018-07-21T07:58:51.869Z,17.50
2018-07-21T08:01:19.504Z,16.48
2018-07-21T08:03:46.794Z,15.95
2018-07-21T08:06:14.134Z,14.07
2018-07-21T08:08:41.411Z,15.65
2018-07-21T08:11:08.694Z,16.23
2018-07-21T08:13:36.450Z,16.12
2018-07-21T08:16:03.755Z,16.50
2018-07-21T08:18:31.216Z,21.20
2018-07-21T08:20:58.520Z,17.17
2018-07-21T08:23:26.182Z,17.42
2018-07-21T08:25:53.427Z,16.73
2018-07-21T08:28:20.727Z,20.32
2018-07-21T08:30:48.043Z,21.90
2018-07-21T08:33:15.293Z,20.45
2018-07-21T08:35:42.564Z,38.53
2018-07-21T08:38:09.824Z,29.05
2018-07-21T08:40:37.105Z,24.15
2018-07-21T08:43:04.363Z,25.40
2018-07-21T08:45:31.663Z,25.35
2018-07-21T08:47:58.990Z,27.13
2018-07-21T08:50:26.259Z,27.73
2018-07-21T08:52:54.007Z,28.70
2018-07-21T08:55:21.262Z,35.25
2018-07-21T08:57:48.802Z,34.35
2018-07-21T09:00:16.392Z,31.20
2018-07-21T09:02:43.834Z,31.60
2018-07-21T09:05:11.127Z,30.37
2018-07-21T09:07:38.948Z,30.80
2018-07-21T09:10:06.765Z,35.48
2018-07-21T09:12:34.388Z,33.45
2018-07-21T09:15:01.654Z,34.63
2018-07-21T09:17:28.904Z,35.75
2018-07-21T09:19:56.205Z,29.07
2018-07-21T09:22:23.486Z,31.20
2018-07-21T09:24:50.777Z,32.93
2018-07-21T09:27:18.066Z,30.77
2018-07-21T09:29:45.515Z,30.12
2018-07-21T09:32:13.179Z,31.27
2018-07-21T09:34:40.491Z,33.63
2018-07-21T09:37:07.818Z,38.50
2018-07-21T09:39:35.374Z,31.50
2018-07-21T09:42:03.008Z,32.73
2018-07-21T09:44:30.303Z,30.65
2018-07-21T09:46:57.562Z,33.53
2018-07-21T09:49:24.978Z,31.48
2018-07-21T09:51:52.309Z,33.65
2018-07-21T09:54:19.792Z,33.18
2018-07-21T09:56:47.136Z,33.98
2018-07-21T09:59:14.413Z,36.88
2018-07-21T10:01:41.743Z,36.48
2018-07-21T10:04:08.940Z,37.90
2018-07-21T10:06:36.231Z,33.65
2018-07-21T10:09:06.481Z,29.80
2018-07-21T10:11:33.834Z,28.73
2018-07-21T10:14:01.123Z,30.08
2018-07-21T10:16:28.375Z,36.90
2018-07-21T10:18:55.628Z,29.25
2018-07-21T10:21:23.768Z,28.62
2018-07-21T10:23:52.435Z,23.62
2018-07-21T10:26:25.725Z,25.50
2018-07-21T10:28:58.807Z,24.37
2018-07-21T10:31:26.141Z,26.27
2018-07-21T10:33:53.639Z,26.02
2018-07-21T10:36:21.336Z,25.08
2018-07-21T10:38:48.664Z,26.00
2018-07-21T10:41:16.521Z,26.73
2018-07-21T10:43:43.795Z,24.25
2018-07-21T10:46:11.086Z,20.95
2018-07-21T10:48:38.430Z,21.80
2018-07-21T10:51:05.812Z,24.25
2018-07-21T10:53:33.105Z,23.35
2018-07-21T10:56:00.458Z,26.27
2018-07-21T10:58:27.742Z,23.83
2018-07-21T11:00:55.255Z,24.15
2018-07-21T11:03:22.640Z,26.35
2018-07-21T11:05:50.104Z,24.85
2018-07-21T11:08:17.383Z,25.72
2018-07-21T11:10:44.757Z,24.67
2018-07-21T11:13:12.091Z,24.27
2018-07-21T11:15:39.367Z,20.35
2018-07-21T11:18:06.700Z,22.02
2018-07-21T11:20:34.027Z,21.00
2018-07-21T11:23:01.322Z,23.22
2018-07-21T11:25:28.612Z,23.22
2018-07-21T11:27:55.902Z,23.10
2018-07-21T11:30:23.160Z,21.55
2018-07-21T11:32:50.460Z,23.83
2018-07-21T11:35:17.861Z,23.40
2018-07-21T11:37:45.135Z,21.02
2018-07-21T11:40:12.459Z,19.70
2018-07-21T11:42:39.727Z,19.95
2018-07-21T11:45:07.145Z,16.95
2018-07-21T11:47:34.427Z,17.73
2018-07-21T11:50:01.688Z,16.42
2018-07-21T11:52:29.023Z,17.42
2018-07-21T11:54:56.508Z,19.85
2018-07-21T11:57:24.096Z,18.80
2018-07-21T11:59:51.396Z,19.35
2018-07-21T12:02:18.768Z,20.57
2018-07-21T12:04:46.177Z,18.73
2018-07-21T12:07:13.623Z,21.12
2018-07-21T12:09:40.907Z,19.73
2018-07-21T12:12:08.340Z,17.80
2018-07-21T12:14:35.792Z,20.12
2018-07-21T12:17:03.062Z,20.23
2018-07-21T12:19:30.350Z,17.92
2018-07-21T12:21:57.645Z,16.17
2018-07-21T12:24:24.995Z,17.37
2018-07-21T12:26:52.394Z,16.87
2018-07-21T12:29:19.764Z,15.90
2018-07-21T12:31:47.323Z,17.50
2018-07-21T12:34:14.666Z,18.77
2018-07-21T12:36:41.887Z,18.10
2018-07-21T12:39:10.060Z,18.87
2018-07-21T12:41:37.847Z,18.67
2018-07-21T12:44:05.219Z,18.95
2018-07-21T12:46:32.631Z,20.02
2018-07-21T12:48:59.957Z,18.27
2018-07-21T12:51:27.491Z,17.05
2018-07-21T12:53:55.219Z,18.62
2018-07-21T12:56:22.513Z,15.65
2018-07-21T12:58:49.814Z,14.65
2018-07-21T13:01:17.099Z,12.55
2018-07-21T13:03:44.375Z,13.48
2018-07-21T13:06:11.730Z,12.18
2018-07-21T13:08:39.006Z,10.45
2018-07-21T13:11:06.635Z,11.38
2018-07-21T13:13:33.903Z,10.80
2018-07-21T13:16:01.339Z,11.95
2018-07-21T13:18:28.633Z,11.55
2018-07-21T13:20:55.958Z,12.63
2018-07-21T13:23:23.409Z,11.95
2018-07-21T13:25:50.691Z,13.43
2018-07-21T13:28:18.035Z,14.58
2018-07-21T13:30:45.328Z,15.00
2018-07-21T13:33:13.504Z,15.03
2018-07-21T13:35:40.911Z,16.37
2018-07-21T13:38:08.445Z,16.70
2018-07-21T13:40:35.772Z,15.25
2018-07-21T13:43:03.113Z,14.55
2018-07-21T13:45:30.395Z,13.68
2018-07-21T13:47:57.697Z,14.60
2018-07-21T13:50:25.020Z,15.32
2018-07-21T13:52:52.367Z,15.72
2018-07-21T13:55:19.700Z,15.30
2018-07-21T13:57:47.140Z,15.98
2018-07-21T14:00:14.479Z,15.58
2018-07-21T14:02:42.409Z,17.73
2018-07-21T14:05:09.687Z,15.55
2018-07-21T14:07:37.259Z,14.25
2018-07-21T14:10:04.801Z,12.80
2018-07-21T14:12:32.345Z,13.35
2018-07-21T14:14:59.802Z,12.43
2018-07-21T14:17:27.218Z,12.05
2018-07-21T14:19:54.585Z,12.00
2018-07-21T14:22:21.854Z,16.85
2018-07-21T14:24:49.409Z,14.23
2018-07-21T14:27:16.710Z,14.40
2018-07-21T14:29:44.178Z,14.13
2018-07-21T14:32:11.699Z,14.90
2018-07-21T14:34:39.013Z,14.53
2018-07-21T14:37:06.655Z,13.00
2018-07-21T14:39:33.999Z,12.65
2018-07-21T14:42:01.335Z,12.65
2018-07-21T14:44:28.599Z,11.20
2018-07-21T14:46:55.917Z,10.28
2018-07-21T14:49:23.206Z,11.90
2018-07-21T14:51:50.504Z,11.28
2018-07-21T14:54:18.470Z,10.95
2018-07-21T14:56:45.761Z,10.88
2018-07-21T14:59:13.218Z,11.43
2018-07-21T15:01:40.565Z,11.28
2018-07-21T15:04:07.855Z,12.43
2018-07-21T15:06:35.249Z,12.30
2018-07-21T15:09:02.631Z,11.43
2018-07-21T15:11:29.937Z,12.95
2018-07-21T15:13:57.299Z,12.47
2018-07-21T15:16:24.583Z,12.98
2018-07-21T15:18:51.851Z,13.80
2018-07-21T15:21:19.167Z,12.47
2018-07-21T15:23:46.696Z,12.90
2018-07-21T15:26:14.102Z,12.30
2018-07-21T15:28:41.391Z,12.37
2018-07-21T15:31:08.812Z,12.28
2018-07-21T15:33:36.084Z,12.53
2018-07-21T15:36:03.336Z,13.90
2018-07-21T15:38:30.683Z,12.50
2018-07-21T15:40:58.042Z,10.75
2018-07-21T15:43:25.342Z,9.98
2018-07-21T15:45:52.634Z,10.23
2018-07-21T15:48:20.055Z,11.00
2018-07-21T15:50:47.494Z,11.78
2018-07-21T15:53:15.331Z,11.85
2018-07-21T15:55:42.632Z,11.18
2018-07-21T15:58:10.090Z,11.73
2018-07-21T16:00:37.579Z,11.97
2018-07-21T16:03:04.896Z,12.18
2018-07-21T16:05:32.183Z,12.82
2018-07-21T16:07:59.576Z,12.90
2018-07-21T16:10:26.872Z,13.75
2018-07-21T16:12:54.299Z,11.12
2018-07-21T16:15:21.675Z,10.28
2018-07-21T16:17:48.952Z,10.90
2018-07-21T16:20:16.249Z,9.40
2018-07-21T16:22:44.777Z,9.75
2018-07-21T16:25:12.136Z,10.53
2018-07-21T16:27:39.504Z,10.78
2018-07-21T16:30:06.911Z,11.30
2018-07-21T16:32:34.255Z,10.63
2018-07-21T16:35:01.496Z,12.75
2018-07-21T16:37:28.856Z,12.15
2018-07-21T16:39:56.740Z,13.20
2018-07-21T16:42:24.085Z,14.13
2018-07-21T16:44:51.403Z,13.60
2018-07-21T16:47:18.727Z,12.23
2018-07-21T16:49:46.330Z,15.08
2018-07-21T16:52:13.602Z,22.00
2018-07-21T16:54:41.259Z,15.95
2018-07-21T16:57:08.599Z,14.55
2018-07-21T16:59:35.907Z,14.53
2018-07-21T17:02:03.224Z,14.98
2018-07-21T17:04:30.877Z,15.23
2018-07-21T17:06:58.195Z,15.35
2018-07-21T17:09:25.596Z,16.10
2018-07-21T17:11:53.058Z,16.10
2018-07-21T17:14:20.451Z,17.27
2018-07-21T17:16:47.699Z,16.82
2018-07-21T17:19:15.050Z,17.65
2018-07-21T17:21:42.498Z,17.30
2018-07-21T17:24:09.931Z,17.82
2018-07-21T17:26:37.208Z,16.40
2018-07-21T17:29:04.551Z,17.40
2018-07-21T17:31:31.956Z,17.52
2018-07-21T17:33:59.459Z,18.12
2018-07-21T17:36:26.747Z,18.12
2018-07-21T17:38:54.027Z,19.60
2018-07-21T17:41:21.376Z,20.15
2018-07-21T17:43:48.666Z,21.00
2018-07-21T17:46:17.007Z,20.57
2018-07-21T17:48:44.313Z,20.85
2018-07-21T17:51:11.588Z,21.40
2018-07-21T17:53:38.883Z,23.50
2018-07-21T17:56:06.363Z,22.42
2018-07-21T17:58:33.683Z,21.62
2018-07-21T18:01:00.983Z,22.67
2018-07-21T18:03:28.304Z,20.92
2018-07-21T18:05:55.697Z,23.10
2018-07-21T18:08:23.194Z,19.82
2018-07-21T18:10:50.495Z,19.98
2018-07-21T18:13:17.824Z,20.82
2018-07-21T18:15:45.212Z,18.73
2018-07-21T18:18:12.516Z,20.57
2018-07-21T18:20:39.811Z,19.80
2018-07-21T18:23:07.371Z,18.95
2018-07-21T18:25:34.770Z,20.40
2018-07-21T18:28:02.119Z,20.85
2018-07-21T18:30:29.522Z,18.42
2018-07-21T18:32:56.818Z,17.92
2018-07-21T18:35:24.703Z,19.25
2018-07-21T18:37:52.176Z,20.08
2018-07-21T18:40:20.005Z,19.70
2018-07-21T18:42:47.360Z,19.85
2018-07-21T18:45:14.782Z,19.42
2018-07-21T18:47:42.196Z,20.68
2018-07-21T18:50:09.700Z,22.75
2018-07-21T18:52:37.132Z,22.80
2018-07-21T18:55:04.825Z,24.10
2018-07-21T18:57:32.207Z,22.82
2018-07-21T19:00:00.107Z,23.10
2018-07-21T19:02:28.131Z,24.35
2018-07-21T19:04:55.631Z,25.35
2018-07-21T19:07:22.931Z,24.80
2018-07-21T19:09:50.623Z,24.30
2018-07-21T19:12:23.846Z,24.90
2018-07-21T19:14:51.216Z,25.48
2018-07-21T19:17:19.374Z,26.90
2018-07-21T19:19:53.660Z,27.25
2018-07-21T19:22:21.908Z,27.75
2018-07-21T19:24:49.294Z,29.98
2018-07-21T19:27:22.287Z,29.82
2018-07-21T19:29:49.794Z,29.23
2018-07-21T19:32:23.119Z,31.77
2018-07-21T19:34:50.525Z,31.40
2018-07-21T19:37:23.459Z,31.85
2018-07-21T19:39:51.054Z,33.08
2018-07-21T19:42:18.296Z,34.10
2018-07-21T19:44:45.580Z,34.58
2018-07-21T19:47:13.139Z,34.70
2018-07-21T19:49:40.385Z,37.25
2018-07-21T19:52:08.064Z,36.40
2018-07-21T19:54:35.436Z,38.17
2018-07-21T19:57:02.921Z,36.93
2018-07-21T19:59:30.216Z,35.75
2018-07-21T20:01:57.564Z,35.38
2018-07-21T20:04:25.047Z,38.30
2018-07-21T20:06:52.354Z,36.50
2018-07-21T20:09:19.739Z,36.20
2018-07-21T20:11:47.151Z,37.80
2018-07-21T20:14:14.677Z,37.67
2018-07-21T20:16:42.011Z,39.15
2018-07-21T20:19:09.378Z,37.25
2018-07-21T20:21:36.918Z,39.25
2018-07-21T20:24:04.332Z,38.23
2018-07-21T20:26:31.663Z,39.65
2018-07-21T20:28:58.922Z,40.70
2018-07-21T20:31:26.282Z,38.73
2018-07-21T20:33:53.532Z,37.98
2018-07-21T20:36:20.871Z,36.75
2018-07-21T20:38:48.460Z,38.85
2018-07-21T20:41:15.797Z,39.48
2018-07-21T20:43:43.117Z,38.13
2018-07-21T20:46:10.491Z,40.23
2018-07-21T20:48:37.900Z,40.40
2018-07-21T20:51:05.445Z,41.42
2018-07-21T20:53:33.246Z,41.37
2018-07-21T20:56:00.522Z,39.05
2018-07-21T20:58:27.852Z,39.70
2018-07-21T21:00:55.388Z,40.33
2018-07-21T21:03:22.707Z,40.15
2018-07-21T21:05:50.014Z,40.03
2018-07-21T21:08:17.450Z,39.08
2018-07-21T21:10:44.803Z,39.00
2018-07-21T21:13:12.267Z,39.30
2018-07-21T21:15:39.802Z,41.55
2018-07-21T21:18:08.131Z,41.70
2018-07-21T21:20:35.411Z,44.42
2018-07-21T21:23:02.776Z,44.25
2018-07-21T21:25:30.064Z,43.80
2018-07-21T21:27:57.313Z,45.23
2018-07-21T21:30:24.755Z,48.10
2018-07-21T21:32:52.003Z,46.13
2018-07-21T21:35:19.262Z,46.50
2018-07-21T21:37:46.564Z,49.18
2018-07-21T21:40:13.920Z,44.48
2018-07-21T21:42:41.353Z,39.92
2018-07-21T21:45:08.664Z,40.78
2018-07-21T21:47:36.243Z,41.42
2018-07-21T21:50:03.695Z,42.67
2018-07-21T21:52:30.986Z,43.35
2018-07-21T21:54:58.276Z,38.08
2018-07-21T21:57:25.575Z,38.00
2018-07-21T21:59:52.854Z,36.58
2018-07-21T22:02:20.156Z,35.13
2018-07-21T22:04:47.450Z,35.28
2018-07-21T22:07:14.830Z,32.98
2018-07-21T22:09:42.164Z,33.33
2018-07-21T22:12:09.513Z,35.88
2018-07-21T22:14:36.818Z,35.68
2018-07-21T22:17:04.254Z,35.10
2018-07-21T22:19:31.565Z,31.30
2018-07-21T22:21:58.862Z,29.98
2018-07-21T22:24:26.128Z,29.60
2018-07-21T22:26:53.795Z,30.52
2018-07-21T22:29:21.135Z,29.63
2018-07-21T22:31:48.384Z,32.28
2018-07-21T22:34:15.656Z,33.98
2018-07-21T22:36:42.947Z,30.97
2018-07-21T22:39:11.386Z,32.23
2018-07-21T22:41:38.921Z,29.12
2018-07-21T22:44:06.279Z,29.87
2018-07-21T22:46:33.564Z,32.23
2018-07-21T22:49:00.847Z,29.55
2018-07-21T22:51:28.195Z,29.52
2018-07-21T22:53:55.463Z,31.95
2018-07-21T22:56:22.800Z,31.25
2018-07-21T22:58:50.067Z,29.20
2018-07-21T23:01:17.413Z,30.05
2018-07-21T23:03:44.623Z,25.92
2018-07-21T23:06:11.936Z,27.42
2018-07-21T23:08:39.319Z,27.70
2018-07-21T23:11:06.710Z,28.32
2018-07-21T23:13:34.031Z,28.95
2018-07-21T23:16:01.359Z,29.27
2018-07-21T23:18:28.658Z,30.88
2018-07-21T23:20:55.899Z,32.42
2018-07-21T23:23:23.199Z,31.80
2018-07-21T23:25:50.549Z,31.25
2018-07-21T23:28:17.816Z,30.37
2018-07-21T23:30:46.187Z,31.65
2018-07-21T23:33:13.496Z,31.90
2018-07-21T23:35:40.868Z,31.62
2018-07-21T23:38:08.155Z,31.70
2018-07-21T23:40:35.467Z,32.78
2018-07-21T23:43:02.808Z,33.53
2018-07-21T23:45:30.078Z,32.17
2018-07-21T23:47:57.391Z,33.90
2018-07-21T23:50:24.739Z,33.67
2018-07-21T23:52:52.066Z,34.08
2018-07-21T23:55:19.343Z,35.17
2018-07-21T23:57:46.893Z,35.38
